Al Mirqab — ZCTS4 — position and weather

sailwx.info

Track history (hours):
 
Tides and Currents Weather Stations Pressure Air Temp Water Temp Dewpoint Dewpoint Depression Visibility Wind Speed Wind Dir Waves Ship Positions

Al Mirqab

Last reported at 2015-Jul-29 18:05 UTC. Time now 2015-Aug-01 22:17 UTC.
Position N 41°04' E 009°33'.

Length 133 m; draft 5 m.

Type: Pleasure craft. MMSI: 319361000.

Date/timePositionNaut miles runAvg speedWind from/ knotsBaromVisibWave heightAir tempDewpointWater temp
2015-Jul-29 18:05N 41°04' E 009°33'0 0.0
2015-Jul-29 17:32N 41°04' E 009°33'93 2.6
2015-Jul-28 05:33N 42°37' E 009°34'2316.7
2015-Jul-28 04:11N 42°60' E 009°30'1116.5
2015-Jul-28 03:33N 43°05' E 009°17'1716.8
2015-Jul-28 02:33N 43°12' E 008°56'2116.7
2015-Jul-28 01:20N 43°20' E 008°31'3015.8
2015-Jul-27 23:25N 43°32' E 007°52'2513.4
2015-Jul-27 21:33N 43°42' E 007°21'0 0.0
2015-Jul-27 16:18N 43°42' E 007°21'0 0.0
2015-Jul-27 15:07N 43°42' E 007°21'0 0.0
2015-Jul-27 14:20N 43°42' E 007°21'0 0.0
2015-Jul-27 04:12N 43°42' E 007°21'0 0.0
2015-Jul-27 03:18N 43°42' E 007°21'0 0.0
2015-Jul-27 02:25N 43°42' E 007°21'0 0.0
2015-Jul-26 15:20N 43°42' E 007°21'0 0.0
2015-Jul-26 09:24N 43°42' E 007°21'0 0.0
2015-Jul-26 08:13N 43°42' E 007°21'0 0.0
2015-Jul-25 20:33N 43°42' E 007°21'4 3.1
2015-Jul-25 19:12N 43°44' E 007°26'913.8
2015-Jul-25 18:33N 43°37' E 007°19'1414.4
2015-Jul-25 17:33N 43°31' E 007°01'2 1.7
2015-Jul-25 16:33N 43°32' E 007°01'3 2.5
2015-Jul-25 15:33N 43°30' E 007°00'1010.4
2015-Jul-25 14:33N 43°21' E 006°53'1111.6
2015-Jul-25 13:33N 43°17' E 006°38'1 0.2
2015-Jul-25 08:13N 43°17' E 006°37'0 0.0
2015-Jul-25 02:29N 43°17' E 006°37'0 0.0
2015-Jul-25 01:24N 43°17' E 006°37'0 0.0
2015-Jul-25 00:30N 43°17' E 006°37'0 0.0
2015-Jul-24 20:33N 43°17' E 006°37'0 0.0
2015-Jul-24 19:22N 43°17' E 006°37'0 0.0
2015-Jul-24 18:28N 43°17' E 006°37'0 0.0
2015-Jul-24 17:29N 43°17' E 006°36'0 0.0
2015-Jul-24 16:30N 43°17' E 006°36'0 0.0
2015-Jul-24 15:27N 43°17' E 006°36'0 0.0
2015-Jul-24 14:25N 43°17' E 006°36'0 0.0
2015-Jul-24 13:32N 43°17' E 006°36'0 0.0
2015-Jul-24 12:29N 43°17' E 006°36'0 0.0
2015-Jul-24 11:33N 43°17' E 006°36'0 0.0
2015-Jul-24 10:19N 43°17' E 006°36'0 0.0
2015-Jul-24 09:28N 43°17' E 006°36'0 0.0
2015-Jul-24 08:29N 43°17' E 006°36'0 0.0
2015-Jul-24 07:30N 43°17' E 006°36'0 0.0
2015-Jul-24 06:24N 43°17' E 006°37'0 0.0
2015-Jul-24 05:25N 43°17' E 006°37'0 0.0
2015-Jul-24 04:08N 43°17' E 006°37'0 0.0
2015-Jul-24 03:26N 43°17' E 006°37'0 0.0
2015-Jul-24 02:33N 43°17' E 006°37'0 0.0
2015-Jul-24 01:10N 43°17' E 006°36'0 0.0
2015-Jul-24 00:22N 43°17' E 006°37'0 0.0
2015-Jul-23 23:17N 43°17' E 006°37'0 0.0
2015-Jul-23 22:30N 43°17' E 006°36'0 0.0
2015-Jul-23 21:30N 43°17' E 006°36'0 0.0
2015-Jul-23 20:25N 43°17' E 006°36'0 0.0
2015-Jul-23 19:32N 43°17' E 006°36'0 0.0
2015-Jul-23 18:03N 43°17' E 006°36'0 0.0
2015-Jul-23 17:33N 43°17' E 006°36'0 0.0
2015-Jul-23 16:28N 43°17' E 006°36'0 0.0
2015-Jul-23 15:32N 43°17' E 006°36'0 0.0
2015-Jul-23 14:29N 43°17' E 006°36'0 0.0
2015-Jul-23 13:30N 43°17' E 006°36'0 0.0
2015-Jul-23 12:18N 43°17' E 006°36'0 0.0
2015-Jul-23 11:31N 43°17' E 006°36'0 0.0
2015-Jul-23 10:32N 43°17' E 006°36'0 0.0
2015-Jul-23 09:32N 43°17' E 006°36'0 0.0
2015-Jul-23 08:30N 43°17' E 006°37'0 0.0
2015-Jul-23 06:11N 43°17' E 006°37'0 0.0
2015-Jul-23 04:24N 43°17' E 006°37'0 0.0
2015-Jul-23 02:25N 43°17' E 006°37'0 0.0
2015-Jul-23 01:32N 43°17' E 006°37'0 0.0
2015-Jul-22 23:06N 43°17' E 006°37'0 0.0
2015-Jul-22 19:33N 43°17' E 006°37'0 0.0
2015-Jul-22 18:33N 43°17' E 006°37'0 0.0
2015-Jul-22 17:25N 43°17' E 006°37'0 0.5
2015-Jul-22 16:31N 43°17' E 006°37'2 1.7
2015-Jul-22 15:32N 43°16' E 006°39'0 0.0
2015-Jul-22 14:09N 43°16' E 006°39'0 0.0
2015-Jul-22 13:27N 43°16' E 006°39'0 0.0
2015-Jul-22 12:31N 43°16' E 006°39'0 0.0
2015-Jul-22 11:33N 43°16' E 006°39'0 0.0
2015-Jul-22 10:26N 43°16' E 006°39'0 0.0
2015-Jul-22 09:33N 43°16' E 006°39'0 0.0
2015-Jul-22 08:27N 43°16' E 006°39'0 0.0
2015-Jul-22 06:29N 43°16' E 006°39'0 0.0
2015-Jul-22 05:32N 43°16' E 006°39'0 0.0
2015-Jul-22 00:12N 43°16' E 006°39'0 0.0
2015-Jul-21 22:25N 43°16' E 006°39'0 0.0
2015-Jul-21 21:26N 43°16' E 006°39'0 0.0
2015-Jul-21 20:30N 43°16' E 006°39'0 0.0
2015-Jul-21 19:24N 43°16' E 006°39'0 0.0
2015-Jul-21 18:31N 43°16' E 006°39'0 0.0
2015-Jul-21 17:29N 43°16' E 006°39'0 0.0
2015-Jul-21 16:26N 43°16' E 006°39'0 0.0
2015-Jul-21 15:24N 43°16' E 006°39'0 0.0
2015-Jul-21 14:28N 43°16' E 006°39'0 0.0
2015-Jul-21 13:28N 43°16' E 006°39'0 0.0
2015-Jul-21 12:32N 43°16' E 006°39'0 0.0
2015-Jul-21 11:33N 43°16' E 006°39'0 0.0
2015-Jul-21 10:33N 43°16' E 006°39'0 0.0
2015-Jul-21 09:31N 43°16' E 006°39'0 0.0
2015-Jul-21 08:29N 43°16' E 006°39'0 0.0
2015-Jul-21 07:29N 43°16' E 006°39'0 0.0
2015-Jul-21 06:33N 43°16' E 006°39'0 0.0
2015-Jul-21 01:12N 43°16' E 006°39'0 0.0
2015-Jul-21 00:31N 43°16' E 006°39'0 0.0
2015-Jul-20 23:26N 43°16' E 006°39'0 0.0
2015-Jul-20 22:32N 43°16' E 006°39'0 0.0
2015-Jul-20 21:33N 43°16' E 006°39'0 0.0
2015-Jul-20 20:31N 43°16' E 006°39'0 0.0
2015-Jul-20 19:14N 43°16' E 006°39'0 0.1
2015-Jul-20 18:32N 43°16' E 006°39'3 2.8
2015-Jul-20 17:32N 43°17' E 006°43'4 3.7
2015-Jul-20 16:32N 43°14' E 006°40'7 1.3
2015-Jul-20 11:33N 43°17' E 006°48'1212.5
2015-Jul-20 10:33N 43°27' E 006°58'4 1.1
2015-Jul-20 07:15N 43°31' E 006°57'0 0.0
2015-Jul-20 06:28N 43°31' E 006°57'0 0.0
2015-Jul-20 04:11N 43°31' E 006°57'0 0.0
2015-Jul-20 03:30N 43°31' E 006°57'0 0.0
2015-Jul-20 01:22N 43°31' E 006°57'5 5.8
2015-Jul-20 00:33N 43°28' E 007°02'1212.4
2015-Jul-19 23:33N 43°35' E 007°17'1211.8
2015-Jul-19 22:33N 43°44' E 007°26'0 0.0
2015-Jul-19 21:23N 43°44' E 007°26'0 0.1
2015-Jul-19 20:28N 43°44' E 007°26'0 0.0
2015-Jul-19 19:23N 43°44' E 007°26'0 0.1
2015-Jul-19 18:15N 43°44' E 007°26'  
Track history (hours):
 
Tides and Currents Weather Stations Pressure Air Temp Water Temp Dewpoint Dewpoint Depression Visibility Wind Speed Wind Dir Waves Ship Positions

Al Mirqab

Last reported at 2015-Jul-29 18:05 UTC. Time now 2015-Aug-01 22:17 UTC.
Position N 41°04' E 009°33'.

Length 133 m; draft 5 m.

Type: Pleasure craft. MMSI: 319361000.

Date/timePositionNaut miles runAvg speedWind from/ knotsBaromVisibWave heightAir tempDewpointWater temp
2015-Jul-29 18:05N 41°04' E 009°33'0 0.0
2015-Jul-29 17:32N 41°04' E 009°33'93 2.6
2015-Jul-28 05:33N 42°37' E 009°34'2316.7
2015-Jul-28 04:11N 42°60' E 009°30'1116.5
2015-Jul-28 03:33N 43°05' E 009°17'1716.8
2015-Jul-28 02:33N 43°12' E 008°56'2116.7
2015-Jul-28 01:20N 43°20' E 008°31'3015.8
2015-Jul-27 23:25N 43°32' E 007°52'2513.4
2015-Jul-27 21:33N 43°42' E 007°21'0 0.0
2015-Jul-27 16:18N 43°42' E 007°21'0 0.0
2015-Jul-27 15:07N 43°42' E 007°21'0 0.0
2015-Jul-27 14:20N 43°42' E 007°21'0 0.0
2015-Jul-27 04:12N 43°42' E 007°21'0 0.0
2015-Jul-27 03:18N 43°42' E 007°21'0 0.0
2015-Jul-27 02:25N 43°42' E 007°21'0 0.0
2015-Jul-26 15:20N 43°42' E 007°21'0 0.0
2015-Jul-26 09:24N 43°42' E 007°21'0 0.0
2015-Jul-26 08:13N 43°42' E 007°21'0 0.0
2015-Jul-25 20:33N 43°42' E 007°21'4 3.1
2015-Jul-25 19:12N 43°44' E 007°26'913.8
2015-Jul-25 18:33N 43°37' E 007°19'1414.4
2015-Jul-25 17:33N 43°31' E 007°01'2 1.7
2015-Jul-25 16:33N 43°32' E 007°01'3 2.5
2015-Jul-25 15:33N 43°30' E 007°00'1010.4
2015-Jul-25 14:33N 43°21' E 006°53'1111.6
2015-Jul-25 13:33N 43°17' E 006°38'1 0.2
2015-Jul-25 08:13N 43°17' E 006°37'0 0.0
2015-Jul-25 02:29N 43°17' E 006°37'0 0.0
2015-Jul-25 01:24N 43°17' E 006°37'0 0.0
2015-Jul-25 00:30N 43°17' E 006°37'0 0.0
2015-Jul-24 20:33N 43°17' E 006°37'0 0.0
2015-Jul-24 19:22N 43°17' E 006°37'0 0.0
2015-Jul-24 18:28N 43°17' E 006°37'0 0.0
2015-Jul-24 17:29N 43°17' E 006°36'0 0.0
2015-Jul-24 16:30N 43°17' E 006°36'0 0.0
2015-Jul-24 15:27N 43°17' E 006°36'0 0.0
2015-Jul-24 14:25N 43°17' E 006°36'0 0.0
2015-Jul-24 13:32N 43°17' E 006°36'0 0.0
2015-Jul-24 12:29N 43°17' E 006°36'0 0.0
2015-Jul-24 11:33N 43°17' E 006°36'0 0.0
2015-Jul-24 10:19N 43°17' E 006°36'0 0.0
2015-Jul-24 09:28N 43°17' E 006°36'0 0.0
2015-Jul-24 08:29N 43°17' E 006°36'0 0.0
2015-Jul-24 07:30N 43°17' E 006°36'0 0.0
2015-Jul-24 06:24N 43°17' E 006°37'0 0.0
2015-Jul-24 05:25N 43°17' E 006°37'0 0.0
2015-Jul-24 04:08N 43°17' E 006°37'0 0.0
2015-Jul-24 03:26N 43°17' E 006°37'0 0.0
2015-Jul-24 02:33N 43°17' E 006°37'0 0.0
2015-Jul-24 01:10N 43°17' E 006°36'0 0.0
2015-Jul-24 00:22N 43°17' E 006°37'0 0.0
2015-Jul-23 23:17N 43°17' E 006°37'0 0.0
2015-Jul-23 22:30N 43°17' E 006°36'0 0.0
2015-Jul-23 21:30N 43°17' E 006°36'0 0.0
2015-Jul-23 20:25N 43°17' E 006°36'0 0.0
2015-Jul-23 19:32N 43°17' E 006°36'0 0.0
2015-Jul-23 18:03N 43°17' E 006°36'0 0.0
2015-Jul-23 17:33N 43°17' E 006°36'0 0.0
2015-Jul-23 16:28N 43°17' E 006°36'0 0.0
2015-Jul-23 15:32N 43°17' E 006°36'0 0.0
2015-Jul-23 14:29N 43°17' E 006°36'0 0.0
2015-Jul-23 13:30N 43°17' E 006°36'0 0.0
2015-Jul-23 12:18N 43°17' E 006°36'0 0.0
2015-Jul-23 11:31N 43°17' E 006°36'0 0.0
2015-Jul-23 10:32N 43°17' E 006°36'0 0.0
2015-Jul-23 09:32N 43°17' E 006°36'0 0.0
2015-Jul-23 08:30N 43°17' E 006°37'0 0.0
2015-Jul-23 06:11N 43°17' E 006°37'0 0.0
2015-Jul-23 04:24N 43°17' E 006°37'0 0.0
2015-Jul-23 02:25N 43°17' E 006°37'0 0.0
2015-Jul-23 01:32N 43°17' E 006°37'0 0.0
2015-Jul-22 23:06N 43°17' E 006°37'0 0.0
2015-Jul-22 19:33N 43°17' E 006°37'0 0.0
2015-Jul-22 18:33N 43°17' E 006°37'0 0.0
2015-Jul-22 17:25N 43°17' E 006°37'0 0.5
2015-Jul-22 16:31N 43°17' E 006°37'2 1.7
2015-Jul-22 15:32N 43°16' E 006°39'0 0.0
2015-Jul-22 14:09N 43°16' E 006°39'0 0.0
2015-Jul-22 13:27N 43°16' E 006°39'0 0.0
2015-Jul-22 12:31N 43°16' E 006°39'0 0.0
2015-Jul-22 11:33N 43°16' E 006°39'0 0.0
2015-Jul-22 10:26N 43°16' E 006°39'0 0.0
2015-Jul-22 09:33N 43°16' E 006°39'0 0.0
2015-Jul-22 08:27N 43°16' E 006°39'0 0.0
2015-Jul-22 06:29N 43°16' E 006°39'0 0.0
2015-Jul-22 05:32N 43°16' E 006°39'0 0.0
2015-Jul-22 00:12N 43°16' E 006°39'0 0.0
2015-Jul-21 22:25N 43°16' E 006°39'0 0.0
2015-Jul-21 21:26N 43°16' E 006°39'0 0.0
2015-Jul-21 20:30N 43°16' E 006°39'0 0.0
2015-Jul-21 19:24N 43°16' E 006°39'0 0.0
2015-Jul-21 18:31N 43°16' E 006°39'0 0.0
2015-Jul-21 17:29N 43°16' E 006°39'0 0.0
2015-Jul-21 16:26N 43°16' E 006°39'0 0.0
2015-Jul-21 15:24N 43°16' E 006°39'0 0.0
2015-Jul-21 14:28N 43°16' E 006°39'0 0.0
2015-Jul-21 13:28N 43°16' E 006°39'0 0.0
2015-Jul-21 12:32N 43°16' E 006°39'0 0.0
2015-Jul-21 11:33N 43°16' E 006°39'0 0.0
2015-Jul-21 10:33N 43°16' E 006°39'0 0.0
2015-Jul-21 09:31N 43°16' E 006°39'0 0.0
2015-Jul-21 08:29N 43°16' E 006°39'0 0.0
2015-Jul-21 07:29N 43°16' E 006°39'0 0.0
2015-Jul-21 06:33N 43°16' E 006°39'0 0.0
2015-Jul-21 01:12N 43°16' E 006°39'0 0.0
2015-Jul-21 00:31N 43°16' E 006°39'0 0.0
2015-Jul-20 23:26N 43°16' E 006°39'0 0.0
2015-Jul-20 22:32N 43°16' E 006°39'0 0.0
2015-Jul-20 21:33N 43°16' E 006°39'0 0.0
2015-Jul-20 20:31N 43°16' E 006°39'0 0.0
2015-Jul-20 19:14N 43°16' E 006°39'0 0.1
2015-Jul-20 18:32N 43°16' E 006°39'3 2.8
2015-Jul-20 17:32N 43°17' E 006°43'4 3.7
2015-Jul-20 16:32N 43°14' E 006°40'7 1.3
2015-Jul-20 11:33N 43°17' E 006°48'1212.5
2015-Jul-20 10:33N 43°27' E 006°58'4 1.1
2015-Jul-20 07:15N 43°31' E 006°57'0 0.0
2015-Jul-20 06:28N 43°31' E 006°57'0 0.0
2015-Jul-20 04:11N 43°31' E 006°57'0 0.0
2015-Jul-20 03:30N 43°31' E 006°57'0 0.0
2015-Jul-20 01:22N 43°31' E 006°57'5 5.8
2015-Jul-20 00:33N 43°28' E 007°02'1212.4
2015-Jul-19 23:33N 43°35' E 007°17'1211.8
2015-Jul-19 22:33N 43°44' E 007°26'0 0.0
2015-Jul-19 21:23N 43°44' E 007°26'0 0.1
2015-Jul-19 20:28N 43°44' E 007°26'0 0.0
2015-Jul-19 19:23N 43°44' E 007°26'0 0.1
2015-Jul-19 18:15N 43°44' E 007°26'  

Dump ship's entire track history